createdAt,value
2016-05-12T00:00:32.211Z,0
2016-05-12T00:01:32.778Z,0
2016-05-12T00:02:32.422Z,0
2016-05-12T00:03:32.456Z,0
2016-05-12T00:04:32.316Z,0
2016-05-12T00:05:32.208Z,0
2016-05-12T00:06:32.588Z,0
2016-05-12T00:07:32.622Z,0
2016-05-12T00:08:32.419Z,0
2016-05-12T00:09:32.815Z,0
2016-05-12T00:10:32.663Z,0
2016-05-12T00:11:32.727Z,0
2016-05-12T00:12:32.730Z,0
2016-05-12T00:13:32.590Z,0
2016-05-12T00:14:32.751Z,0
2016-05-12T00:15:32.894Z,0
2016-05-12T00:16:33.037Z,0
2016-05-12T00:17:32.759Z,0
2016-05-12T00:18:32.762Z,0
2016-05-12T00:19:32.637Z,0
2016-05-12T00:20:32.923Z,0
2016-05-12T00:21:33.004Z,0
2016-05-12T00:22:33.006Z,0
2016-05-12T00:23:32.803Z,0
2016-05-12T00:24:32.838Z,0
2016-05-12T00:25:33.031Z,0
2016-05-12T00:26:32.970Z,0
2016-05-12T00:27:33.083Z,0
2016-05-12T00:28:33.132Z,0
2016-05-12T00:29:32.991Z,0
2016-05-12T00:30:32.900Z,0
2016-05-12T00:31:32.888Z,0
2016-05-12T00:32:33.206Z,0
2016-05-12T00:33:33.019Z,0
2016-05-12T00:34:33.289Z,0
2016-05-12T00:35:33.039Z,0
2016-05-12T00:36:33.167Z,0
2016-05-12T00:37:33.185Z,0
2016-05-12T00:38:33.203Z,0
2016-05-12T00:39:33.397Z,0
2016-05-12T00:40:33.430Z,0
2016-05-12T00:41:33.449Z,0
2016-05-12T00:42:33.482Z,0
2016-05-12T00:43:33.341Z,0
2016-05-12T00:44:33.518Z,0
2016-05-12T00:45:33.553Z,0
2016-05-12T00:46:34.432Z,0
2016-05-12T00:47:33.621Z,0
2016-05-12T00:48:33.465Z,0
2016-05-12T00:49:33.767Z,0
2016-05-12T00:50:33.532Z,0
2016-05-12T00:51:33.725Z,0
2016-05-12T00:52:33.728Z,0
2016-05-12T00:53:33.700Z,0
2016-05-12T00:54:33.874Z,0
2016-05-12T00:55:33.908Z,0
2016-05-12T00:56:33.911Z,0
2016-05-12T00:57:33.929Z,0
2016-05-12T00:58:33.776Z,0
2016-05-12T00:59:33.934Z,0
2016-05-12T01:00:33.952Z,0
2016-05-12T01:01:34.472Z,0
2016-05-12T01:02:34.131Z,0
2016-05-12T01:03:34.039Z,0
2016-05-12T01:04:33.742Z,0
2016-05-12T01:05:33.900Z,0
2016-05-12T01:06:34.110Z,0
2016-05-12T01:07:33.969Z,0
2016-05-12T01:08:34.147Z,0
2016-05-12T01:09:33.959Z,0
2016-05-12T01:10:34.214Z,0
2016-05-12T01:11:34.232Z,0
2016-05-12T01:12:34.107Z,0
2016-05-12T01:13:34.126Z,0
2016-05-12T01:14:34.303Z,0
2016-05-12T01:15:34.447Z,0
2016-05-12T01:16:34.418Z,0
2016-05-12T01:17:34.404Z,0
2016-05-12T01:18:34.264Z,0
2016-05-12T01:19:34.441Z,0
2016-05-12T01:20:34.459Z,0
2016-05-12T01:21:34.479Z,0
2016-05-12T01:22:34.354Z,0
2016-05-12T01:23:34.531Z,0
2016-05-12T01:24:34.565Z,0
2016-05-12T01:25:34.582Z,0
2016-05-12T01:26:34.757Z,0
2016-05-12T01:27:34.507Z,0
2016-05-12T01:28:34.684Z,0
2016-05-12T01:29:34.703Z,0
2016-05-12T01:30:34.562Z,0
2016-05-12T01:31:35.067Z,0
2016-05-12T01:32:34.614Z,0
2016-05-12T01:33:34.476Z,0
2016-05-12T01:34:34.825Z,0
2016-05-12T01:35:34.844Z,0
2016-05-12T01:36:34.719Z,0
2016-05-12T01:37:34.737Z,0
2016-05-12T01:38:34.772Z,0
2016-05-12T01:39:34.949Z,0
2016-05-12T01:40:35.013Z,0
2016-05-12T01:41:34.923Z,0
2016-05-12T01:42:34.941Z,0
2016-05-12T01:43:35.068Z,0
2016-05-12T01:44:35.071Z,0
2016-05-12T01:45:34.949Z,0
2016-05-12T01:46:35.218Z,0
2016-05-12T01:47:35.157Z,0
2016-05-12T01:48:35.016Z,0
2016-05-12T01:49:35.210Z,0
2016-05-12T01:50:35.085Z,0
2016-05-12T01:51:35.262Z,0
2016-05-12T01:52:35.137Z,0
2016-05-12T01:53:34.843Z,0
2016-05-12T01:54:35.332Z,0
2016-05-12T01:55:35.367Z,0
2016-05-12T01:56:35.385Z,0
2016-05-12T01:57:35.260Z,0
2016-05-12T01:58:35.437Z,0
2016-05-12T01:59:35.456Z,0
2016-05-12T02:00:35.505Z,0
2016-05-12T02:01:35.757Z,0
2016-05-12T02:02:35.541Z,0
2016-05-12T02:03:35.592Z,0
2016-05-12T02:04:35.594Z,0
2016-05-12T02:05:35.471Z,0
2016-05-12T02:06:35.646Z,0
2016-05-12T02:07:35.680Z,0
2016-05-12T02:08:35.683Z,0
2016-05-12T02:09:35.763Z,0
2016-05-12T02:10:35.735Z,0
2016-05-12T02:11:35.610Z,0
2016-05-12T02:12:35.662Z,0
2016-05-12T02:13:35.821Z,0
2016-05-12T02:14:35.714Z,0
2016-05-12T02:15:35.873Z,0
2016-05-12T02:16:35.767Z,0
2016-05-12T02:17:35.957Z,0
2016-05-12T02:18:35.834Z,0
2016-05-12T02:19:35.978Z,0
2016-05-12T02:20:35.996Z,0
2016-05-12T02:21:36.030Z,0
2016-05-12T02:22:35.890Z,0
2016-05-12T02:23:36.082Z,0
2016-05-12T02:24:36.101Z,0
2016-05-12T02:25:36.119Z,0
2016-05-12T02:26:36.137Z,0
2016-05-12T02:27:36.031Z,0
2016-05-12T02:28:36.205Z,0
2016-05-12T02:29:36.223Z,0
2016-05-12T02:30:36.083Z,0
2016-05-12T02:31:36.667Z,0
2016-05-12T02:32:36.135Z,0
2016-05-12T02:33:36.013Z,0
2016-05-12T02:34:36.377Z,0
2016-05-12T02:35:36.221Z,0
2016-05-12T02:36:36.336Z,0
2016-05-12T02:37:36.432Z,0
2016-05-12T02:38:36.592Z,0
2016-05-12T02:39:36.485Z,0
2016-05-12T02:40:36.644Z,0
2016-05-12T02:41:36.662Z,0
2016-05-12T02:42:36.461Z,0
2016-05-12T02:43:36.699Z,0
2016-05-12T02:44:36.513Z,0
2016-05-12T02:45:36.657Z,0
2016-05-12T02:46:36.535Z,0
2016-05-12T02:47:36.647Z,0
2016-05-12T02:48:36.852Z,0
2016-05-12T02:49:36.683Z,0
2016-05-12T02:50:36.433Z,0
2016-05-12T02:51:36.877Z,0
2016-05-12T02:52:36.596Z,0
2016-05-12T02:53:36.613Z,0
2016-05-12T02:54:36.931Z,0
2016-05-12T02:55:36.793Z,0
2016-05-12T02:56:36.811Z,0
2016-05-12T02:57:36.939Z,0
2016-05-12T02:58:36.974Z,0
2016-05-12T02:59:36.976Z,0
2016-05-12T03:00:37.010Z,0
2016-05-12T03:01:37.184Z,0
2016-05-12T03:02:37.047Z,0
2016-05-12T03:03:36.986Z,0
2016-05-12T03:04:37.099Z,0
2016-05-12T03:05:37.117Z,0
2016-05-12T03:06:37.136Z,0
2016-05-12T03:07:37.185Z,0
2016-05-12T03:08:37.203Z,0
2016-05-12T03:09:37.331Z,0
2016-05-12T03:10:37.162Z,0
2016-05-12T03:11:37.336Z,0
2016-05-12T03:12:37.370Z,0
2016-05-12T03:13:37.373Z,0
2016-05-12T03:14:37.391Z,0
2016-05-12T03:15:37.300Z,0
2016-05-12T03:16:37.175Z,0
2016-05-12T03:17:37.588Z,0
2016-05-12T03:18:37.324Z,0
2016-05-12T03:19:36.996Z,0
2016-05-12T03:20:37.139Z,0
2016-05-12T03:21:37.142Z,0
2016-05-12T03:22:37.646Z,0
2016-05-12T03:23:37.634Z,0
2016-05-12T03:24:37.652Z,0
2016-05-12T03:25:37.655Z,0
2016-05-12T03:26:37.751Z,0
2016-05-12T03:27:37.739Z,0
2016-05-12T03:28:37.773Z,0
2016-05-12T03:29:37.413Z,0
2016-05-12T03:30:37.684Z,0
2016-05-12T03:31:37.703Z,0
2016-05-12T03:32:37.784Z,0
2016-05-12T03:33:37.817Z,0
2016-05-12T03:34:37.836Z,0
2016-05-12T03:35:37.695Z,0
2016-05-12T03:36:37.888Z,0
2016-05-12T03:37:37.747Z,0
2016-05-12T03:38:37.940Z,0
2016-05-12T03:39:37.815Z,0
2016-05-12T03:40:37.992Z,0
2016-05-12T03:41:38.010Z,0
2016-05-12T03:42:38.044Z,0
2016-05-12T03:43:37.904Z,0
2016-05-12T03:44:37.938Z,0
2016-05-12T03:45:38.115Z,0
2016-05-12T03:46:38.149Z,0
2016-05-12T03:47:38.168Z,0
2016-05-12T03:48:38.186Z,0
2016-05-12T03:49:38.235Z,0
2016-05-12T03:50:38.238Z,0
2016-05-12T03:51:38.257Z,0
2016-05-12T03:52:38.275Z,0
2016-05-12T03:53:38.309Z,0
2016-05-12T03:54:38.327Z,0
2016-05-12T03:55:38.202Z,0
2016-05-12T03:56:38.379Z,0
2016-05-12T03:57:38.254Z,0
2016-05-12T03:58:38.273Z,0
2016-05-12T03:59:38.307Z,0
2016-05-12T04:00:38.484Z,0
2016-05-12T04:01:39.299Z,0
2016-05-12T04:02:38.536Z,0
2016-05-12T04:03:38.395Z,0
2016-05-12T04:04:38.414Z,0
2016-05-12T04:05:38.607Z,0
2016-05-12T04:06:38.640Z,0
2016-05-12T04:07:38.484Z,0
2016-05-12T04:08:38.677Z,0
2016-05-12T04:09:38.695Z,0
2016-05-12T04:10:38.730Z,0
2016-05-12T04:11:38.636Z,0
2016-05-12T04:12:38.781Z,0
2016-05-12T04:13:38.641Z,0
2016-05-12T04:14:38.519Z,0
2016-05-12T04:15:38.693Z,0
2016-05-12T04:16:38.743Z,0
2016-05-12T04:17:38.904Z,0
2016-05-12T04:18:38.779Z,0
2016-05-12T04:19:38.957Z,0
2016-05-12T04:20:38.800Z,0
2016-05-12T04:21:38.835Z,0
2016-05-12T04:22:39.012Z,0
2016-05-12T04:23:39.045Z,0
2016-05-12T04:24:38.904Z,0
2016-05-12T04:25:39.098Z,0
2016-05-12T04:26:39.116Z,0
2016-05-12T04:27:38.976Z,0
2016-05-12T04:28:39.009Z,0
2016-05-12T04:29:39.202Z,0
2016-05-12T04:30:39.221Z,0
2016-05-12T04:31:39.239Z,0
2016-05-12T04:32:39.098Z,0
2016-05-12T04:33:39.132Z,0
2016-05-12T04:34:39.403Z,0
2016-05-12T04:35:39.453Z,0
2016-05-12T04:36:39.062Z,0
2016-05-12T04:37:39.299Z,0
2016-05-12T04:38:39.462Z,0
2016-05-12T04:39:39.274Z,0
2016-05-12T04:40:39.497Z,0
2016-05-12T04:41:39.453Z,0
2016-05-12T04:42:39.471Z,0
2016-05-12T04:43:39.475Z,0
2016-05-12T04:44:39.665Z,5
2016-05-12T04:45:39.683Z,5
2016-05-12T04:46:40.280Z,5
2016-05-12T04:47:39.719Z,5
2016-05-12T04:48:39.579Z,5
2016-05-12T04:49:39.441Z,5
2016-05-12T04:50:39.744Z,5
2016-05-12T04:51:39.603Z,5
2016-05-12T04:52:39.764Z,5
2016-05-12T04:53:39.468Z,5
2016-05-12T04:54:39.501Z,5
2016-05-12T04:55:39.504Z,5
2016-05-12T04:56:39.947Z,5
2016-05-12T04:57:39.871Z,5
2016-05-12T04:58:39.824Z,5
2016-05-12T04:59:39.971Z,5
2016-05-12T05:00:39.942Z,5
2016-05-12T05:01:39.785Z,5
2016-05-12T05:02:39.994Z,5
2016-05-12T05:03:40.013Z,5
2016-05-12T05:04:39.732Z,5
2016-05-12T05:05:40.065Z,5
2016-05-12T05:06:40.084Z,5
2016-05-12T05:07:40.117Z,5
2016-05-12T05:08:39.976Z,5
2016-05-12T05:09:40.169Z,5
2016-05-12T05:10:40.203Z,5
2016-05-12T05:11:40.222Z,5
2016-05-12T05:12:40.081Z,5
2016-05-12T05:13:40.084Z,5
2016-05-12T05:14:40.277Z,5
2016-05-12T05:15:40.152Z,5
2016-05-12T05:16:40.391Z,5
2016-05-12T05:17:40.347Z,5
2016-05-12T05:18:40.066Z,5
2016-05-12T05:19:40.415Z,5
2016-05-12T05:20:40.258Z,5
2016-05-12T05:21:40.452Z,5
2016-05-12T05:22:40.579Z,5
2016-05-12T05:23:40.489Z,5
2016-05-12T05:24:40.632Z,5
2016-05-12T05:25:40.382Z,5
2016-05-12T05:26:40.621Z,5
2016-05-12T05:27:40.640Z,5
2016-05-12T05:28:40.452Z,5
2016-05-12T05:29:40.329Z,5
2016-05-12T05:30:40.710Z,5
2016-05-12T05:31:40.838Z,5
2016-05-12T05:32:40.840Z,5
2016-05-12T05:33:40.715Z,5
2016-05-12T05:34:40.846Z,5
2016-05-12T05:35:40.848Z,5
2016-05-12T05:36:40.898Z,5
2016-05-12T05:37:40.757Z,5
2016-05-12T05:38:40.920Z,5
2016-05-12T05:39:40.907Z,5
2016-05-12T05:40:40.925Z,5
2016-05-12T05:41:40.784Z,5
2016-05-12T05:42:40.961Z,5
2016-05-12T05:43:40.979Z,5
2016-05-12T05:44:40.869Z,5
2016-05-12T05:45:41.029Z,5
2016-05-12T05:46:40.906Z,5
2016-05-12T05:47:40.769Z,5
2016-05-12T05:48:41.084Z,5
2016-05-12T05:49:41.246Z,5
2016-05-12T05:50:41.264Z,5
2016-05-12T05:51:41.266Z,5
2016-05-12T05:52:41.269Z,5
2016-05-12T05:53:41.287Z,5
2016-05-12T05:54:41.446Z,5
2016-05-12T05:55:41.309Z,5
2016-05-12T05:56:40.825Z,5
2016-05-12T05:57:41.438Z,5
2016-05-12T05:58:41.298Z,5
2016-05-12T05:59:41.460Z,5
2016-05-12T06:00:41.463Z,5
2016-05-12T06:01:41.762Z,5
2016-05-12T06:02:41.371Z,5
2016-05-12T06:03:41.484Z,5
2016-05-12T06:04:41.330Z,5
2016-05-12T06:05:41.632Z,5
2016-05-12T06:06:41.604Z,5
2016-05-12T06:07:41.573Z,5
2016-05-12T06:08:41.590Z,5
2016-05-12T06:09:41.689Z,5
2016-05-12T06:10:41.330Z,5
2016-05-12T06:11:41.662Z,5
2016-05-12T06:12:41.633Z,5
2016-05-12T06:13:41.558Z,5
2016-05-12T06:14:41.669Z,5
2016-05-12T06:15:41.672Z,5
2016-05-12T06:16:41.990Z,5
2016-05-12T06:17:41.850Z,5
2016-05-12T06:18:41.836Z,5
2016-05-12T06:19:41.699Z,5
2016-05-12T06:20:41.748Z,5
2016-05-12T06:21:41.907Z,5
2016-05-12T06:22:41.785Z,5
2016-05-12T06:23:41.725Z,5
2016-05-12T06:24:42.040Z,5
2016-05-12T06:25:41.840Z,5
2016-05-12T06:26:42.077Z,5
2016-05-12T06:27:42.238Z,5
2016-05-12T06:28:42.082Z,5
2016-05-12T06:29:42.085Z,5
2016-05-12T06:30:42.262Z,5
2016-05-12T06:31:42.468Z,5
2016-05-12T06:32:42.280Z,5
2016-05-12T06:33:42.142Z,5
2016-05-12T06:34:42.286Z,5
2016-05-12T06:35:42.335Z,5
2016-05-12T06:36:42.337Z,5
2016-05-12T06:37:42.185Z,5
2016-05-12T06:38:42.424Z,5
2016-05-12T06:39:42.424Z,5
2016-05-12T06:40:42.162Z,5
2016-05-12T06:41:42.462Z,5
2016-05-12T06:42:42.464Z,5
2016-05-12T06:43:42.326Z,5
2016-05-12T06:44:42.344Z,5
2016-05-12T06:45:42.347Z,5
2016-05-12T06:46:42.600Z,5
2016-05-12T06:47:42.492Z,5
2016-05-12T06:48:42.448Z,5
2016-05-12T06:49:42.607Z,5
2016-05-12T06:50:42.512Z,5
2016-05-12T06:51:42.746Z,5
2016-05-12T06:52:42.650Z,5
2016-05-12T06:53:42.712Z,5
2016-05-12T06:54:42.961Z,5
2016-05-12T06:55:42.822Z,5
2016-05-12T06:56:43.029Z,5
2016-05-12T06:57:42.905Z,5
2016-05-12T06:58:43.111Z,5
2016-05-12T06:59:43.144Z,5
2016-05-12T07:00:42.856Z,5
2016-05-12T07:01:43.271Z,5
2016-05-12T07:02:43.231Z,5
2016-05-12T07:03:42.959Z,5
2016-05-12T07:04:43.294Z,5
2016-05-12T07:05:43.314Z,5
2016-05-12T07:06:43.194Z,5
2016-05-12T07:07:43.387Z,5
2016-05-12T07:08:43.094Z,5
2016-05-12T07:09:43.427Z,5
2016-05-12T07:10:43.462Z,5
2016-05-12T07:11:43.481Z,5
2016-05-12T07:12:43.359Z,10
2016-05-12T07:13:43.550Z,10
2016-05-12T07:14:43.413Z,10
2016-05-12T07:15:43.697Z,10
2016-05-12T07:16:44.125Z,10
2016-05-12T07:17:43.734Z,10
2016-05-12T07:18:43.753Z,10
2016-05-12T07:19:43.881Z,10
2016-05-12T07:20:43.759Z,10
2016-05-12T07:21:43.761Z,10
2016-05-12T07:22:43.670Z,10
2016-05-12T07:23:43.845Z,10
2016-05-12T07:24:43.848Z,10
2016-05-12T07:25:43.851Z,10
2016-05-12T07:26:43.963Z,10
2016-05-12T07:27:43.871Z,10
2016-05-12T07:28:43.984Z,10
2016-05-12T07:29:44.017Z,10
2016-05-12T07:30:44.020Z,10
2016-05-12T07:31:44.180Z,10
2016-05-12T07:32:44.041Z,10
2016-05-12T07:33:44.060Z,10
2016-05-12T07:34:43.922Z,10
2016-05-12T07:35:44.096Z,10
2016-05-12T07:36:43.833Z,10
2016-05-12T07:37:43.977Z,10
2016-05-12T07:38:44.010Z,10
2016-05-12T07:39:44.201Z,10
2016-05-12T07:40:44.235Z,10
2016-05-12T07:41:44.097Z,10
2016-05-12T07:42:44.302Z,10
2016-05-12T07:43:43.884Z,10
2016-05-12T07:44:44.323Z,10
2016-05-12T07:45:44.046Z,10
2016-05-12T07:46:45.270Z,10
2016-05-12T07:47:44.129Z,10
2016-05-12T07:48:44.553Z,10
2016-05-12T07:49:44.571Z,10
2016-05-12T07:50:44.449Z,10
2016-05-12T07:51:44.608Z,10
2016-05-12T07:52:44.471Z,10
2016-05-12T07:53:44.504Z,10
2016-05-12T07:54:44.507Z,10
2016-05-12T07:55:44.666Z,10
2016-05-12T07:56:44.684Z,10
2016-05-12T07:57:44.547Z,10
2016-05-12T07:58:44.392Z,10
2016-05-12T07:59:44.817Z,10
2016-05-12T08:00:44.804Z,10
2016-05-12T08:01:45.325Z,10
2016-05-12T08:02:44.716Z,10
2016-05-12T08:03:44.875Z,10
2016-05-12T08:04:44.580Z,10
2016-05-12T08:05:44.880Z,10
2016-05-12T08:06:44.774Z,10
2016-05-12T08:07:44.495Z,10
2016-05-12T08:08:44.966Z,10
2016-05-12T08:09:44.671Z,10
2016-05-12T08:10:45.019Z,10
2016-05-12T08:11:45.053Z,10
2016-05-12T08:12:44.805Z,10
2016-05-12T08:13:45.027Z,10
2016-05-12T08:14:45.217Z,10
2016-05-12T08:15:45.376Z,10
2016-05-12T08:16:45.316Z,10
2016-05-12T08:17:45.131Z,10
2016-05-12T08:18:45.369Z,10
2016-05-12T08:19:45.199Z,10
2016-05-12T08:20:45.373Z,15
2016-05-12T08:21:45.518Z,15
2016-05-12T08:22:45.379Z,15
2016-05-12T08:23:45.522Z,15
2016-05-12T08:24:45.384Z,15
2016-05-12T08:25:44.856Z,15
2016-05-12T08:26:45.561Z,15
2016-05-12T08:27:45.548Z,15
2016-05-12T08:28:45.270Z,15
2016-05-12T08:29:45.725Z,15
2016-05-12T08:31:00.669Z,15
2016-05-12T08:31:46.516Z,15
2016-05-12T08:32:45.719Z,15
2016-05-12T08:33:45.769Z,15
2016-05-12T08:34:45.772Z,15
2016-05-12T08:35:45.539Z,15
2016-05-12T08:36:45.620Z,15
2016-05-12T08:37:45.794Z,15
2016-05-12T08:38:45.797Z,15
2016-05-12T08:39:45.863Z,15
2016-05-12T08:40:45.865Z,15
2016-05-12T08:41:45.883Z,15
2016-05-12T08:42:45.854Z,15
2016-05-12T08:43:45.998Z,15
2016-05-12T08:44:45.907Z,15
2016-05-12T08:45:45.910Z,15
2016-05-12T08:46:46.178Z,15
2016-05-12T08:47:46.056Z,15
2016-05-12T08:48:46.074Z,15
2016-05-12T08:49:46.045Z,15
2016-05-12T08:50:46.142Z,15
2016-05-12T08:51:46.160Z,15
2016-05-12T08:52:46.225Z,15
2016-05-12T08:53:46.228Z,15
2016-05-12T08:54:46.278Z,15
2016-05-12T08:55:46.123Z,15
2016-05-12T08:56:46.393Z,15
2016-05-12T08:57:46.426Z,15
2016-05-12T08:58:46.256Z,20
2016-05-12T08:59:46.245Z,15
2016-05-12T09:00:46.262Z,20
2016-05-12T09:01:49.456Z,20
2016-05-12T09:02:46.643Z,15
2016-05-12T09:03:46.645Z,20
2016-05-12T09:04:46.695Z,20
2016-05-12T09:05:46.557Z,20
2016-05-12T09:06:46.403Z,20
2016-05-12T09:07:46.703Z,20
2016-05-12T09:08:46.580Z,20
2016-05-12T09:09:46.740Z,20
2016-05-12T09:10:46.633Z,20
2016-05-12T09:11:46.730Z,20
2016-05-12T09:12:46.841Z,20
2016-05-12T09:13:46.860Z,20
2016-05-12T09:14:46.862Z,20
2016-05-12T09:15:46.757Z,20
2016-05-12T09:16:46.962Z,20
2016-05-12T09:17:46.918Z,20
2016-05-12T09:18:46.968Z,20
2016-05-12T09:19:46.829Z,20
2016-05-12T09:20:47.004Z,20
2016-05-12T09:21:47.054Z,20
2016-05-12T09:22:47.071Z,20
2016-05-12T09:23:46.949Z,20
2016-05-12T09:24:46.967Z,20
2016-05-12T09:25:47.173Z,20
2016-05-12T09:26:47.067Z,20
2016-05-12T09:27:47.209Z,20
2016-05-12T09:28:47.259Z,20
2016-05-12T09:29:47.137Z,20
2016-05-12T09:30:47.312Z,20
2016-05-12T09:31:47.549Z,20
2016-05-12T09:32:47.380Z,20
2016-05-12T09:33:47.258Z,25
2016-05-12T09:34:47.119Z,20
2016-05-12T09:35:47.153Z,20
2016-05-12T09:36:47.344Z,25
2016-05-12T09:37:47.503Z,25
2016-05-12T09:38:47.568Z,25
2016-05-12T09:39:47.586Z,25
2016-05-12T09:40:47.605Z,25
2016-05-12T09:41:47.638Z,25
2016-05-12T09:42:47.516Z,25
2016-05-12T09:43:47.549Z,25
2016-05-12T09:44:47.584Z,25
2016-05-12T09:45:47.758Z,25
2016-05-12T09:46:48.671Z,25
2016-05-12T09:47:47.686Z,25
2016-05-12T09:48:47.704Z,25
2016-05-12T09:49:47.879Z,25
2016-05-12T09:50:47.772Z,25
2016-05-12T09:51:47.962Z,25
2016-05-12T09:52:47.840Z,25
2016-05-12T09:53:49.595Z,25
2016-05-12T09:54:47.907Z,25
2016-05-12T09:55:48.082Z,25
2016-05-12T09:56:47.945Z,25
2016-05-12T09:57:48.134Z,25
2016-05-12T09:58:48.043Z,25
2016-05-12T09:59:48.061Z,25
2016-05-12T10:00:48.252Z,30
2016-05-12T10:01:48.270Z,25
2016-05-12T10:02:48.288Z,30
2016-05-12T10:03:48.339Z,30
2016-05-12T10:04:48.201Z,30
2016-05-12T10:05:48.250Z,30
2016-05-12T10:06:48.362Z,30
2016-05-12T10:07:48.567Z,30
2016-05-12T10:08:48.430Z,30
2016-05-12T10:09:48.433Z,30
2016-05-12T10:10:48.591Z,30
2016-05-12T10:11:48.594Z,30
2016-05-12T10:12:48.627Z,30
2016-05-12T10:13:48.599Z,30
2016-05-12T10:14:48.399Z,30
2016-05-12T10:15:48.745Z,30
2016-05-12T10:16:49.154Z,30
2016-05-12T10:17:48.876Z,30
2016-05-12T10:18:48.910Z,30
2016-05-12T10:19:48.850Z,30
2016-05-12T10:20:48.790Z,30
2016-05-12T10:21:48.918Z,30
2016-05-12T10:22:48.936Z,30
2016-05-12T10:23:48.971Z,15
2016-05-12T10:24:49.004Z,30
2016-05-12T10:25:49.023Z,30
2016-05-12T10:26:49.072Z,30
2016-05-12T10:27:48.934Z,30
2016-05-12T10:28:48.984Z,30
2016-05-12T10:29:49.236Z,35
2016-05-12T10:30:49.036Z,35
2016-05-12T10:31:49.178Z,35
2016-05-12T10:32:49.275Z,35
2016-05-12T10:33:49.952Z,35
2016-05-12T10:34:49.327Z,30
2016-05-12T10:35:49.424Z,30
2016-05-12T10:36:49.255Z,40
2016-05-12T10:37:49.289Z,40
2016-05-12T10:38:49.308Z,40
2016-05-12T10:39:49.325Z,30
2016-05-12T10:40:49.940Z,40
2016-05-12T10:41:49.518Z,40
2016-05-12T10:42:49.599Z,30
2016-05-12T10:43:49.493Z,25
2016-05-12T10:44:49.636Z,25
2016-05-12T10:45:49.638Z,40
2016-05-12T10:46:49.954Z,45
2016-05-12T10:47:49.832Z,25
2016-05-12T10:48:49.835Z,20
2016-05-12T10:49:49.852Z,50
2016-05-12T10:50:49.854Z,45
2016-05-12T10:51:49.827Z,40
2016-05-12T10:52:49.893Z,45
2016-05-12T10:53:49.863Z,45
2016-05-12T10:54:49.788Z,55
2016-05-12T10:55:50.040Z,35
2016-05-12T10:56:50.059Z,45
2016-05-12T10:57:49.796Z,55
2016-05-12T10:58:50.127Z,65
2016-05-12T10:59:50.161Z,70
2016-05-12T11:00:50.381Z,55
2016-05-12T11:01:50.212Z,55
2016-05-12T11:02:50.232Z,55
2016-05-12T11:03:50.311Z,30
2016-05-12T11:04:50.174Z,50
2016-05-12T11:05:50.364Z,35
2016-05-12T11:06:50.854Z,30
2016-05-12T11:07:50.386Z,35
2016-05-12T11:08:50.545Z,35
2016-05-12T11:09:50.562Z,35
2016-05-12T11:10:50.409Z,55
2016-05-12T11:11:50.428Z,60
2016-05-12T11:12:50.617Z,65
2016-05-12T11:13:50.480Z,55
2016-05-12T11:14:50.794Z,50
2016-05-12T11:15:50.813Z,45
2016-05-12T11:16:50.644Z,20
2016-05-12T11:17:50.755Z,20
2016-05-12T11:18:50.805Z,45
2016-05-12T11:19:50.855Z,50
2016-05-12T11:20:50.920Z,45
2016-05-12T11:21:50.907Z,55
2016-05-12T11:22:50.785Z,50
2016-05-12T11:23:50.975Z,50
2016-05-12T11:24:51.009Z,55
2016-05-12T11:25:51.043Z,60
2016-05-12T11:26:51.030Z,50
2016-05-12T11:27:51.207Z,50
2016-05-12T11:28:50.864Z,50
2016-05-12T11:29:51.182Z,60
2016-05-12T11:30:51.340Z,65
2016-05-12T11:31:52.374Z,65
2016-05-12T11:32:51.299Z,60
2016-05-12T11:33:51.159Z,55
2016-05-12T11:34:51.051Z,50
2016-05-12T11:35:51.241Z,50
2016-05-12T11:36:51.653Z,70
2016-05-12T11:37:51.328Z,70
2016-05-12T11:38:51.502Z,70
2016-05-12T11:39:51.537Z,40
2016-05-12T11:40:51.570Z,45
2016-05-12T11:41:51.588Z,35
2016-05-12T11:42:51.639Z,40
2016-05-12T11:43:51.532Z,65
2016-05-12T11:44:51.706Z,55
2016-05-12T11:45:51.425Z,45
2016-05-12T11:46:51.821Z,30
2016-05-12T11:47:51.824Z,60
2016-05-12T11:48:51.716Z,55
2016-05-12T11:49:51.736Z,40
2016-05-12T11:50:51.941Z,25
2016-05-12T11:51:51.959Z,50
2016-05-12T11:52:51.553Z,50
2016-05-12T11:53:51.868Z,50
2016-05-12T11:54:51.777Z,55
2016-05-12T11:55:51.780Z,40
2016-05-12T11:56:52.129Z,55
2016-05-12T11:57:52.004Z,55
2016-05-12T11:58:52.212Z,65
2016-05-12T11:59:52.262Z,70
2016-05-12T12:00:52.265Z,75
2016-05-12T12:01:52.409Z,85
2016-05-12T12:02:52.334Z,85
2016-05-12T12:03:52.367Z,80
2016-05-12T12:04:52.226Z,65
2016-05-12T12:05:52.275Z,40
2016-05-12T12:06:52.169Z,55
2016-05-12T12:07:52.359Z,55
2016-05-12T12:08:52.396Z,55
2016-05-12T12:09:52.539Z,55
2016-05-12T12:10:52.619Z,55
2016-05-12T12:11:52.716Z,55
2016-05-12T12:12:52.563Z,55
2016-05-12T12:13:52.580Z,55
2016-05-12T12:14:52.771Z,55
2016-05-12T12:15:52.789Z,70
2016-05-12T12:16:52.964Z,70
2016-05-12T12:17:52.717Z,85
2016-05-12T12:18:52.766Z,80
2016-05-12T12:19:52.941Z,75
2016-05-12T12:20:52.818Z,60
2016-05-12T12:21:53.010Z,45
2016-05-12T12:22:53.058Z,85
2016-05-12T12:23:53.233Z,85
2016-05-12T12:24:53.142Z,75
2016-05-12T12:25:53.020Z,80
2016-05-12T12:26:52.910Z,80
2016-05-12T12:27:53.071Z,70
2016-05-12T12:28:53.262Z,65
2016-05-12T12:29:53.139Z,35
2016-05-12T12:30:53.329Z,45
2016-05-12T12:31:53.318Z,35
2016-05-12T12:32:53.101Z,40
2016-05-12T12:33:53.431Z,50
2016-05-12T12:34:53.325Z,50
2016-05-12T12:35:53.359Z,35
2016-05-12T12:36:53.378Z,30
2016-05-12T12:37:53.568Z,40
2016-05-12T12:38:53.617Z,65
2016-05-12T12:39:53.511Z,80
2016-05-12T12:40:53.701Z,80
2016-05-12T12:41:53.734Z,70
2016-05-12T12:42:53.784Z,40
2016-05-12T12:43:53.646Z,60
2016-05-12T12:44:53.867Z,80
2016-05-12T12:45:53.745Z,70
2016-05-12T12:46:54.482Z,60
2016-05-12T12:47:53.954Z,40
2016-05-12T12:48:54.002Z,55
2016-05-12T12:49:54.022Z,30
2016-05-12T12:50:54.071Z,45
2016-05-12T12:51:53.933Z,35
2016-05-12T12:52:56.983Z,35
2016-05-12T12:53:54.016Z,35
2016-05-12T12:54:54.348Z,30
2016-05-12T12:55:54.241Z,55
2016-05-12T12:56:54.354Z,55
2016-05-12T12:57:54.309Z,55
2016-05-12T12:58:54.124Z,55
2016-05-12T12:59:54.471Z,55
2016-05-12T13:00:54.489Z,55
2016-05-12T13:01:55.163Z,30
2016-05-12T13:02:54.494Z,65
2016-05-12T13:03:54.465Z,50
2016-05-12T13:04:54.343Z,55
2016-05-12T13:05:54.517Z,65
2016-05-12T13:06:54.661Z,60
2016-05-12T13:07:54.679Z,40
2016-05-12T13:08:54.541Z,40
2016-05-12T13:09:54.653Z,75
2016-05-12T13:10:54.625Z,50
2016-05-12T13:11:54.815Z,35
2016-05-12T13:12:54.865Z,25
2016-05-12T13:13:54.587Z,25
2016-05-12T13:14:54.869Z,30
2016-05-12T13:15:55.030Z,60
2016-05-12T13:16:54.547Z,70
2016-05-12T13:17:55.066Z,70
2016-05-12T13:18:55.225Z,40
2016-05-12T13:19:55.118Z,55
2016-05-12T13:20:55.246Z,40
2016-05-12T13:21:55.295Z,40
2016-05-12T13:22:55.079Z,40
2016-05-12T13:23:55.316Z,40
2016-05-12T13:24:55.318Z,40
2016-05-12T13:25:55.134Z,70
2016-05-12T13:26:55.293Z,75
2016-05-12T13:27:55.327Z,70
2016-05-12T13:28:55.345Z,65
2016-05-12T13:29:55.363Z,65
2016-05-12T13:30:55.522Z,70
2016-05-12T13:31:55.854Z,80
2016-05-12T13:32:55.559Z,60
2016-05-12T13:33:55.624Z,60
2016-05-12T13:34:55.487Z,50
2016-05-12T13:35:55.426Z,55
2016-05-12T13:36:55.445Z,50
2016-05-12T13:37:55.464Z,75
2016-05-12T13:38:55.669Z,55
2016-05-12T13:39:55.672Z,40
2016-05-12T13:40:55.581Z,35
2016-05-12T13:41:56.005Z,30
2016-05-12T13:42:55.992Z,60
2016-05-12T13:43:56.042Z,60
2016-05-12T13:44:55.388Z,60
2016-05-12T13:45:55.985Z,60
2016-05-12T13:46:56.816Z,60
2016-05-12T13:47:56.302Z,60
2016-05-12T13:48:56.150Z,60
2016-05-12T13:49:56.323Z,60
2016-05-12T13:50:56.169Z,60
2016-05-12T13:51:56.220Z,60
2016-05-12T13:52:56.238Z,65
2016-05-12T13:53:56.335Z,65
2016-05-12T13:54:56.430Z,70
2016-05-12T13:55:56.465Z,85
2016-05-12T13:56:56.827Z,75
2016-05-12T13:57:57.564Z,70
2016-05-12T13:58:57.113Z,70
2016-05-12T13:59:56.710Z,35
2016-05-12T14:00:57.947Z,35
2016-05-12T14:01:57.668Z,55
2016-05-12T14:02:56.687Z,20
2016-05-12T14:03:56.736Z,20
2016-05-12T14:04:56.582Z,20
2016-05-12T14:05:56.773Z,20
2016-05-12T14:06:56.822Z,20
2016-05-12T14:07:56.732Z,25
2016-05-12T14:08:56.750Z,25
2016-05-12T14:09:56.627Z,25
2016-05-12T14:10:56.973Z,35
2016-05-12T14:11:57.148Z,65
2016-05-12T14:12:57.042Z,65
2016-05-12T14:13:57.326Z,80
2016-05-12T14:14:57.125Z,85
2016-05-12T14:15:56.987Z,60
2016-05-12T14:16:57.678Z,40
2016-05-12T14:17:57.227Z,30
2016-05-12T14:18:57.120Z,25
2016-05-12T14:19:57.155Z,20
2016-05-12T14:20:57.329Z,15
2016-05-12T14:21:57.472Z,15
2016-05-12T14:22:57.318Z,20
2016-05-12T14:23:57.477Z,20
2016-05-12T14:24:57.340Z,25
2016-05-12T14:25:57.468Z,30
2016-05-12T14:26:57.641Z,30
2016-05-12T14:27:57.504Z,35
2016-05-12T14:28:57.647Z,55
2016-05-12T14:29:57.666Z,40
2016-05-12T14:30:57.699Z,70
2016-05-12T14:31:57.546Z,70